This demonstration page uses our WeatherBlox Daily Observations layout. Learn more.

Left ArrowRight Arrow

Hourly Observations for August 22, 2017

Temp ( °F °C ) Dew Point ( °F °C ) Humidity (%) Winds ( mph kmh ) Pressure ( in mb ) Visibility ( mi km ) Precip ( " mm )
12:51 am 00:51 Clear 73 22.8 51 10.6 46 46 SE 3 6 29.89 1012 10 16.0934 0 0
1:51 am 01:51 Clear 72 22.2 52 11.1 50 50 S 3 6 29.89 1012 10 16.0934 0 0
2:51 am 02:51 Clear 69 20.6 52 11.1 55 55 SSE 5 7 29.9 1013 10 16.0934 0 0
3:51 am 03:51 Clear 68 20 51 10.6 55 55 E 5 7 29.9 1013 10 16.0934 0 0
4:51 am 04:51 Clear 69 20.6 52 11.1 55 55 ESE 3 6 29.91 1013 10 16.0934 0 0
5:51 am 05:51 Sunny 66 18.9 52 11.1 61 61 NNE 6 9 29.93 1014 10 16.0934 0 0
6:51 am 06:51 Sunny 71 21.7 55 12.8 57 57 Calm 29.95 1014 10 16.0934 0 0
7:51 am 07:51 Sunny 78 25.6 55 12.8 45 45 Calm 29.97 1015 10 16.0934 0 0
8:51 am 08:51 Sunny 85 29.4 56 13.3 37 37 ESE 8 13 29.96 1015 10 16.0934 0 0
9:51 am 09:51 Sunny 89 31.7 55 12.8 31 31 SE 8 13 29.95 1014 10 16.0934 0 0
10:51 am 10:51 Sunny 91 32.8 55 12.8 30 30 SSE 5 7 29.94 1014 10 16.0934 0 0
11:51 am 11:51 Sunny 94 34.4 53 11.7 25 25 Calm 29.91 1013 10 16.0934 0 0
12:51 pm 12:51 Sunny 96 35.6 52 11.1 23 23 Calm 29.89 1012 10 16.0934 0 0
1:51 pm 13:51 Sunny 97 36.1 48 8.9 19 19 VRB 6 9 29.87 1012 10 16.0934 0 0
2:51 pm 14:51 Sunny 99 37.2 49 9.4 18 18 WNW 3 6 29.84 1011 10 16.0934 0 0
3:51 pm 15:51 Sunny 99 37.2 50 10 19 19 W 7 11 29.82 1010 10 16.0934 0 0
4:51 pm 16:51 Sunny 99 37.2 50 10 19 19 VRB 3 6 29.8 1009 10 16.0934 0 0
5:51 pm 17:51 Sunny 98 36.7 46 7.8 17 17 Calm 29.8 1009 10 16.0934 0 0
6:51 pm 18:51 Sunny 94 34.4 49 9.4 21 21 SW 3 6 29.8 1009 10 16.0934 0 0
7:51 pm 19:51 Clear 87 30.6 52 11.1 30 30 NW 5 7 29.81 1010 10 16.0934 0 0
8:51 pm 20:51 Clear 82 27.8 54 12.2 38 38 Calm 29.84 1011 10 16.0934 0 0
9:51 pm 21:51 Clear 81 27.2 53 11.7 38 38 ESE 5 7 29.84 1011 10 16.0934 0 0
10:51 pm 22:51 Clear 82 27.8 51 10.6 34 34 ENE 5 7 29.83 1010 10 16.0934 0 0
11:51 pm 23:51 Clear 86 30 53 11.7 32 32 NW 3 6 29.83 1010 10 16.0934 0 0

Powered by AerisWeather